sensor_id;sensor_type;location;lat;lon;timestamp;temperature;humidity
7844;DHT22;3967;48.702;9.326;2023-06-22T00:01:21;22.90;99.90
7844;DHT22;3967;48.702;9.326;2023-06-22T00:03:51;23.00;99.90
7844;DHT22;3967;48.702;9.326;2023-06-22T00:06:18;22.90;99.90
7844;DHT22;3967;48.702;9.326;2023-06-22T00:08:45;22.80;99.90
7844;DHT22;3967;48.702;9.326;2023-06-22T00:11:12;22.70;99.90
7844;DHT22;3967;48.702;9.326;2023-06-22T00:13:39;22.60;99.90
7844;DHT22;3967;48.702;9.326;2023-06-22T00:16:06;22.50;99.90
7844;DHT22;3967;48.702;9.326;2023-06-22T00:18:32;22.50;99.90
7844;DHT22;3967;48.702;9.326;2023-06-22T00:20:59;22.50;99.90
7844;DHT22;3967;48.702;9.326;2023-06-22T00:23:27;22.40;99.90
7844;DHT22;3967;48.702;9.326;2023-06-22T00:25:54;22.50;99.90
7844;DHT22;3967;48.702;9.326;2023-06-22T00:28:20;22.50;99.90
7844;DHT22;3967;48.702;9.326;2023-06-22T00:30:48;22.60;99.90
7844;DHT22;3967;48.702;9.326;2023-06-22T00:33:16;22.60;99.90
7844;DHT22;3967;48.702;9.326;2023-06-22T00:35:43;22.50;99.90
7844;DHT22;3967;48.702;9.326;2023-06-22T00:38:11;22.60;99.90
7844;DHT22;3967;48.702;9.326;2023-06-22T00:40:37;22.60;99.90
7844;DHT22;3967;48.702;9.326;2023-06-22T00:43:05;22.70;99.90
7844;DHT22;3967;48.702;9.326;2023-06-22T00:45:32;22.60;99.90
7844;DHT22;3967;48.702;9.326;2023-06-22T00:47:59;22.60;99.90
7844;DHT22;3967;48.702;9.326;2023-06-22T00:50:31;22.50;99.90
7844;DHT22;3967;48.702;9.326;2023-06-22T00:53:04;22.50;99.90
7844;DHT22;3967;48.702;9.326;2023-06-22T00:55:45;22.50;99.90
7844;DHT22;3967;48.702;9.326;2023-06-22T00:58:13;22.50;99.90
7844;DHT22;3967;48.702;9.326;2023-06-22T01:00:40;22.60;99.90
7844;DHT22;3967;48.702;9.326;2023-06-22T01:03:08;22.60;99.90
7844;DHT22;3967;48.702;9.326;2023-06-22T01:05:37;22.60;99.90
7844;DHT22;3967;48.702;9.326;2023-06-22T01:10:48;22.70;99.90
7844;DHT22;3967;48.702;9.326;2023-06-22T01:15:55;22.50;99.90
7844;DHT22;3967;48.702;9.326;2023-06-22T01:18:24;22.50;99.90
7844;DHT22;3967;48.702;9.326;2023-06-22T01:20:54;22.30;99.90
7844;DHT22;3967;48.702;9.326;2023-06-22T01:23:50;22.30;99.90
7844;DHT22;3967;48.702;9.326;2023-06-22T01:26:22;22.40;99.90
7844;DHT22;3967;48.702;9.326;2023-06-22T01:28:55;22.30;99.90
7844;DHT22;3967;48.702;9.326;2023-06-22T01:31:25;22.30;99.90
7844;DHT22;3967;48.702;9.326;2023-06-22T01:34:02;22.40;99.90
7844;DHT22;3967;48.702;9.326;2023-06-22T01:36:30;22.20;99.90
7844;DHT22;3967;48.702;9.326;2023-06-22T01:38:58;22.20;99.90
7844;DHT22;3967;48.702;9.326;2023-06-22T01:41:26;22.20;99.90
7844;DHT22;3967;48.702;9.326;2023-06-22T01:43:54;22.40;99.90
7844;DHT22;3967;48.702;9.326;2023-06-22T01:46:22;22.30;99.90
7844;DHT22;3967;48.702;9.326;2023-06-22T01:48:50;22.10;99.90
7844;DHT22;3967;48.702;9.326;2023-06-22T01:51:17;21.90;99.90
7844;DHT22;3967;48.702;9.326;2023-06-22T01:53:44;22.00;99.90
7844;DHT22;3967;48.702;9.326;2023-06-22T01:56:11;22.10;99.90
7844;DHT22;3967;48.702;9.326;2023-06-22T01:58:54;22.20;99.90
7844;DHT22;3967;48.702;9.326;2023-06-22T02:01:31;22.20;99.90
7844;DHT22;3967;48.702;9.326;2023-06-22T02:04:07;22.30;99.90
7844;DHT22;3967;48.702;9.326;2023-06-22T02:06:39;22.20;99.90
7844;DHT22;3967;48.702;9.326;2023-06-22T02:09:12;22.10;99.90
7844;DHT22;3967;48.702;9.326;2023-06-22T02:11:42;22.20;99.90
7844;DHT22;3967;48.702;9.326;2023-06-22T02:14:12;22.00;99.90
7844;DHT22;3967;48.702;9.326;2023-06-22T02:16:40;21.80;99.90
7844;DHT22;3967;48.702;9.326;2023-06-22T02:19:07;21.90;99.90
7844;DHT22;3967;48.702;9.326;2023-06-22T02:21:34;21.80;99.90
7844;DHT22;3967;48.702;9.326;2023-06-22T02:24:01;21.70;99.90
7844;DHT22;3967;48.702;9.326;2023-06-22T02:26:28;21.80;99.90
7844;DHT22;3967;48.702;9.326;2023-06-22T02:28:55;21.90;99.90
7844;DHT22;3967;48.702;9.326;2023-06-22T02:31:22;21.90;99.90
7844;DHT22;3967;48.702;9.326;2023-06-22T02:33:48;21.90;99.90
7844;DHT22;3967;48.702;9.326;2023-06-22T02:36:16;21.70;99.90
7844;DHT22;3967;48.702;9.326;2023-06-22T02:38:43;21.80;99.90
7844;DHT22;3967;48.702;9.326;2023-06-22T02:41:15;21.90;99.90
7844;DHT22;3967;48.702;9.326;2023-06-22T02:43:46;21.50;99.90
7844;DHT22;3967;48.702;9.326;2023-06-22T02:46:13;21.80;99.90
7844;DHT22;3967;48.702;9.326;2023-06-22T02:48:40;21.90;99.90
7844;DHT22;3967;48.702;9.326;2023-06-22T02:51:07;21.90;99.90
7844;DHT22;3967;48.702;9.326;2023-06-22T02:53:34;21.80;99.90
7844;DHT22;3967;48.702;9.326;2023-06-22T02:56:02;21.60;99.90
7844;DHT22;3967;48.702;9.326;2023-06-22T02:58:32;21.60;99.90
7844;DHT22;3967;48.702;9.326;2023-06-22T03:01:05;21.70;99.90
7844;DHT22;3967;48.702;9.326;2023-06-22T03:03:32;21.80;99.90
7844;DHT22;3967;48.702;9.326;2023-06-22T03:05:59;21.90;99.90
7844;DHT22;3967;48.702;9.326;2023-06-22T03:08:28;21.80;99.90
7844;DHT22;3967;48.702;9.326;2023-06-22T03:10:55;21.80;99.90
7844;DHT22;3967;48.702;9.326;2023-06-22T03:13:23;21.90;99.90
7844;DHT22;3967;48.702;9.326;2023-06-22T03:15:50;22.00;99.90
7844;DHT22;3967;48.702;9.326;2023-06-22T03:18:16;22.00;99.90
7844;DHT22;3967;48.702;9.326;2023-06-22T03:20:43;21.80;99.90
7844;DHT22;3967;48.702;9.326;2023-06-22T03:23:10;21.60;99.90
7844;DHT22;3967;48.702;9.326;2023-06-22T03:25:36;21.50;99.90
7844;DHT22;3967;48.702;9.326;2023-06-22T03:28:03;21.10;99.90
7844;DHT22;3967;48.702;9.326;2023-06-22T03:30:30;21.20;99.90
7844;DHT22;3967;48.702;9.326;2023-06-22T03:32:57;21.30;99.90
7844;DHT22;3967;48.702;9.326;2023-06-22T03:35:24;21.40;99.90
7844;DHT22;3967;48.702;9.326;2023-06-22T03:37:51;21.50;99.90
7844;DHT22;3967;48.702;9.326;2023-06-22T03:40:17;21.50;99.90
7844;DHT22;3967;48.702;9.326;2023-06-22T03:42:45;21.60;99.90
7844;DHT22;3967;48.702;9.326;2023-06-22T03:45:11;21.70;99.90
7844;DHT22;3967;48.702;9.326;2023-06-22T03:47:38;21.70;99.90
7844;DHT22;3967;48.702;9.326;2023-06-22T03:50:05;21.80;99.90
7844;DHT22;3967;48.702;9.326;2023-06-22T03:52:32;21.80;99.90
7844;DHT22;3967;48.702;9.326;2023-06-22T03:54:59;21.80;99.90
7844;DHT22;3967;48.702;9.326;2023-06-22T03:57:26;21.90;99.90
7844;DHT22;3967;48.702;9.326;2023-06-22T03:59:55;21.90;99.90
7844;DHT22;3967;48.702;9.326;2023-06-22T04:02:22;21.80;99.90
7844;DHT22;3967;48.702;9.326;2023-06-22T04:04:49;21.80;99.90
7844;DHT22;3967;48.702;9.326;2023-06-22T04:07:16;21.70;99.90
7844;DHT22;3967;48.702;9.326;2023-06-22T04:09:44;21.80;99.90
7844;DHT22;3967;48.702;9.326;2023-06-22T04:12:11;21.80;99.90
7844;DHT22;3967;48.702;9.326;2023-06-22T04:14:37;21.70;99.90
7844;DHT22;3967;48.702;9.326;2023-06-22T04:17:05;21.80;99.90
7844;DHT22;3967;48.702;9.326;2023-06-22T04:19:31;21.90;99.90
7844;DHT22;3967;48.702;9.326;2023-06-22T04:21:58;22.00;99.90
7844;DHT22;3967;48.702;9.326;2023-06-22T04:24:25;21.90;99.90
7844;DHT22;3967;48.702;9.326;2023-06-22T04:26:52;22.00;99.90
7844;DHT22;3967;48.702;9.326;2023-06-22T04:29:21;22.10;99.90
7844;DHT22;3967;48.702;9.326;2023-06-22T04:31:56;22.10;99.90
7844;DHT22;3967;48.702;9.326;2023-06-22T04:34:25;22.10;99.90
7844;DHT22;3967;48.702;9.326;2023-06-22T04:36:52;22.30;99.90
7844;DHT22;3967;48.702;9.326;2023-06-22T04:39:19;22.30;99.90
7844;DHT22;3967;48.702;9.326;2023-06-22T04:41:46;22.30;99.90
7844;DHT22;3967;48.702;9.326;2023-06-22T04:44:15;22.30;99.90
7844;DHT22;3967;48.702;9.326;2023-06-22T04:46:52;22.20;99.90
7844;DHT22;3967;48.702;9.326;2023-06-22T04:49:27;22.30;99.90
7844;DHT22;3967;48.702;9.326;2023-06-22T04:52:06;22.50;99.90
7844;DHT22;3967;48.702;9.326;2023-06-22T04:54:34;22.40;99.90
7844;DHT22;3967;48.702;9.326;2023-06-22T04:57:02;22.40;99.90
7844;DHT22;3967;48.702;9.326;2023-06-22T04:59:31;22.40;99.90
7844;DHT22;3967;48.702;9.326;2023-06-22T05:01:59;22.30;99.90
7844;DHT22;3967;48.702;9.326;2023-06-22T05:04:27;22.50;99.90
7844;DHT22;3967;48.702;9.326;2023-06-22T05:06:54;22.70;99.90
7844;DHT22;3967;48.702;9.326;2023-06-22T05:09:21;22.60;99.90
7844;DHT22;3967;48.702;9.326;2023-06-22T05:11:48;22.70;99.90
7844;DHT22;3967;48.702;9.326;2023-06-22T05:14:15;22.60;99.90
7844;DHT22;3967;48.702;9.326;2023-06-22T05:16:42;22.60;99.90
7844;DHT22;3967;48.702;9.326;2023-06-22T05:19:09;22.80;99.90
7844;DHT22;3967;48.702;9.326;2023-06-22T05:21:37;22.90;99.90
7844;DHT22;3967;48.702;9.326;2023-06-22T05:24:04;22.80;99.40
7844;DHT22;3967;48.702;9.326;2023-06-22T05:26:32;22.90;99.40
7844;DHT22;3967;48.702;9.326;2023-06-22T05:29:01;22.80;99.70
7844;DHT22;3967;48.702;9.326;2023-06-22T05:31:29;22.90;99.60
7844;DHT22;3967;48.702;9.326;2023-06-22T05:33:56;23.10;99.40
7844;DHT22;3967;48.702;9.326;2023-06-22T05:36:23;23.00;98.50
7844;DHT22;3967;48.702;9.326;2023-06-22T05:38:53;22.80;99.70
7844;DHT22;3967;48.702;9.326;2023-06-22T05:41:20;23.10;99.10
7844;DHT22;3967;48.702;9.326;2023-06-22T05:43:46;23.10;99.10
7844;DHT22;3967;48.702;9.326;2023-06-22T05:46:13;23.30;99.00
7844;DHT22;3967;48.702;9.326;2023-06-22T05:48:40;23.60;98.00
7844;DHT22;3967;48.702;9.326;2023-06-22T05:51:07;23.50;97.70
7844;DHT22;3967;48.702;9.326;2023-06-22T05:53:34;23.70;97.60
7844;DHT22;3967;48.702;9.326;2023-06-22T05:56:00;23.90;97.00
7844;DHT22;3967;48.702;9.326;2023-06-22T05:58:27;24.30;96.30
7844;DHT22;3967;48.702;9.326;2023-06-22T06:00:54;24.50;96.30
7844;DHT22;3967;48.702;9.326;2023-06-22T06:03:20;24.50;95.00
7844;DHT22;3967;48.702;9.326;2023-06-22T06:05:47;24.50;94.20
7844;DHT22;3967;48.702;9.326;2023-06-22T06:08:14;25.00;94.00
7844;DHT22;3967;48.702;9.326;2023-06-22T06:10:41;25.20;93.30
7844;DHT22;3967;48.702;9.326;2023-06-22T06:13:08;25.20;93.30
7844;DHT22;3967;48.702;9.326;2023-06-22T06:15:35;25.50;92.50
7844;DHT22;3967;48.702;9.326;2023-06-22T06:18:02;25.40;92.30
7844;DHT22;3967;48.702;9.326;2023-06-22T06:20:32;25.80;91.90
7844;DHT22;3967;48.702;9.326;2023-06-22T06:23:00;26.10;91.40
7844;DHT22;3967;48.702;9.326;2023-06-22T06:25:26;26.30;90.70
7844;DHT22;3967;48.702;9.326;2023-06-22T06:27:53;26.20;90.80
7844;DHT22;3967;48.702;9.326;2023-06-22T06:30:21;26.30;90.40
7844;DHT22;3967;48.702;9.326;2023-06-22T06:32:49;26.30;89.80
7844;DHT22;3967;48.702;9.326;2023-06-22T06:35:16;26.30;89.70
7844;DHT22;3967;48.702;9.326;2023-06-22T06:37:46;26.30;87.80
7844;DHT22;3967;48.702;9.326;2023-06-22T06:40:14;26.50;89.70
7844;DHT22;3967;48.702;9.326;2023-06-22T06:42:43;26.70;88.40
7844;DHT22;3967;48.702;9.326;2023-06-22T06:45:16;26.80;88.30
7844;DHT22;3967;48.702;9.326;2023-06-22T06:47:43;26.90;87.40
7844;DHT22;3967;48.702;9.326;2023-06-22T06:50:10;26.80;86.40
7844;DHT22;3967;48.702;9.326;2023-06-22T06:52:37;27.10;86.70
7844;DHT22;3967;48.702;9.326;2023-06-22T06:55:05;27.10;85.60
7844;DHT22;3967;48.702;9.326;2023-06-22T06:57:35;27.40;84.50
7844;DHT22;3967;48.702;9.326;2023-06-22T07:00:09;27.80;83.30
7844;DHT22;3967;48.702;9.326;2023-06-22T07:02:39;27.30;82.80
7844;DHT22;3967;48.702;9.326;2023-06-22T07:05:10;27.30;82.60
7844;DHT22;3967;48.702;9.326;2023-06-22T07:07:38;27.40;83.00
7844;DHT22;3967;48.702;9.326;2023-06-22T07:10:06;27.60;82.20
7844;DHT22;3967;48.702;9.326;2023-06-22T07:12:33;27.70;82.30
7844;DHT22;3967;48.702;9.326;2023-06-22T07:15:08;27.70;81.50
7844;DHT22;3967;48.702;9.326;2023-06-22T07:17:36;27.90;80.40
7844;DHT22;3967;48.702;9.326;2023-06-22T07:20:03;28.20;79.70
7844;DHT22;3967;48.702;9.326;2023-06-22T07:22:40;28.30;79.70
7844;DHT22;3967;48.702;9.326;2023-06-22T07:25:08;28.40;79.30
7844;DHT22;3967;48.702;9.326;2023-06-22T07:30:23;28.00;79.60
7844;DHT22;3967;48.702;9.326;2023-06-22T07:32:50;28.30;80.90
7844;DHT22;3967;48.702;9.326;2023-06-22T07:35:17;28.40;79.30
7844;DHT22;3967;48.702;9.326;2023-06-22T07:37:44;28.30;78.80
7844;DHT22;3967;48.702;9.326;2023-06-22T07:40:11;28.40;78.70
7844;DHT22;3967;48.702;9.326;2023-06-22T07:42:38;28.30;78.90
7844;DHT22;3967;48.702;9.326;2023-06-22T07:45:06;28.70;77.80
7844;DHT22;3967;48.702;9.326;2023-06-22T07:47:35;28.70;79.00
7844;DHT22;3967;48.702;9.326;2023-06-22T07:50:03;28.70;77.90
7844;DHT22;3967;48.702;9.326;2023-06-22T07:52:30;29.00;77.30
7844;DHT22;3967;48.702;9.326;2023-06-22T07:54:57;28.80;76.90
7844;DHT22;3967;48.702;9.326;2023-06-22T07:57:24;29.10;77.10
7844;DHT22;3967;48.702;9.326;2023-06-22T08:00:06;29.10;77.80
7844;DHT22;3967;48.702;9.326;2023-06-22T08:02:44;29.10;77.10
7844;DHT22;3967;48.702;9.326;2023-06-22T08:05:11;29.40;76.90
7844;DHT22;3967;48.702;9.326;2023-06-22T08:07:48;29.30;76.40
7844;DHT22;3967;48.702;9.326;2023-06-22T08:10:16;29.80;75.20
7844;DHT22;3967;48.702;9.326;2023-06-22T08:12:43;30.10;74.80
7844;DHT22;3967;48.702;9.326;2023-06-22T08:15:10;30.20;74.30
7844;DHT22;3967;48.702;9.326;2023-06-22T08:17:40;30.20;72.90
7844;DHT22;3967;48.702;9.326;2023-06-22T08:20:08;30.00;73.30
7844;DHT22;3967;48.702;9.326;2023-06-22T08:22:40;30.00;73.20
7844;DHT22;3967;48.702;9.326;2023-06-22T08:25:07;30.50;72.10
7844;DHT22;3967;48.702;9.326;2023-06-22T08:27:34;30.40;71.50
7844;DHT22;3967;48.702;9.326;2023-06-22T08:30:02;30.60;70.40
7844;DHT22;3967;48.702;9.326;2023-06-22T08:32:29;30.90;69.70
7844;DHT22;3967;48.702;9.326;2023-06-22T08:34:57;30.80;69.90
7844;DHT22;3967;48.702;9.326;2023-06-22T08:37:24;31.10;71.00
7844;DHT22;3967;48.702;9.326;2023-06-22T08:39:59;31.40;70.60
7844;DHT22;3967;48.702;9.326;2023-06-22T08:42:26;31.50;68.30
7844;DHT22;3967;48.702;9.326;2023-06-22T08:44:53;31.50;68.70
7844;DHT22;3967;48.702;9.326;2023-06-22T08:47:20;31.90;70.00
7844;DHT22;3967;48.702;9.326;2023-06-22T08:49:48;31.90;69.00
7844;DHT22;3967;48.702;9.326;2023-06-22T08:52:15;31.70;68.80
7844;DHT22;3967;48.702;9.326;2023-06-22T08:54:42;31.60;69.40
7844;DHT22;3967;48.702;9.326;2023-06-22T08:57:09;31.90;69.70
7844;DHT22;3967;48.702;9.326;2023-06-22T08:59:36;32.10;68.50
7844;DHT22;3967;48.702;9.326;2023-06-22T09:02:03;32.50;67.20
7844;DHT22;3967;48.702;9.326;2023-06-22T09:04:30;32.30;66.50
7844;DHT22;3967;48.702;9.326;2023-06-22T09:07:02;32.20;65.80
7844;DHT22;3967;48.702;9.326;2023-06-22T09:09:29;31.80;66.70
7844;DHT22;3967;48.702;9.326;2023-06-22T09:11:56;31.70;65.90
7844;DHT22;3967;48.702;9.326;2023-06-22T09:14:22;31.70;66.40
7844;DHT22;3967;48.702;9.326;2023-06-22T09:16:49;32.20;66.00
7844;DHT22;3967;48.702;9.326;2023-06-22T09:19:16;32.10;66.20
7844;DHT22;3967;48.702;9.326;2023-06-22T09:21:43;32.00;65.70
7844;DHT22;3967;48.702;9.326;2023-06-22T09:24:10;32.10;65.70
7844;DHT22;3967;48.702;9.326;2023-06-22T09:26:36;32.00;66.50
7844;DHT22;3967;48.702;9.326;2023-06-22T09:29:05;32.10;66.80
7844;DHT22;3967;48.702;9.326;2023-06-22T09:31:32;31.80;66.90
7844;DHT22;3967;48.702;9.326;2023-06-22T09:33:59;31.60;67.80
7844;DHT22;3967;48.702;9.326;2023-06-22T09:36:26;31.70;68.50
7844;DHT22;3967;48.702;9.326;2023-06-22T09:38:52;31.50;68.20
7844;DHT22;3967;48.702;9.326;2023-06-22T09:41:22;31.50;68.60
7844;DHT22;3967;48.702;9.326;2023-06-22T09:43:49;31.50;68.00
7844;DHT22;3967;48.702;9.326;2023-06-22T09:46:16;32.00;68.60
7844;DHT22;3967;48.702;9.326;2023-06-22T09:48:43;32.20;67.80
7844;DHT22;3967;48.702;9.326;2023-06-22T09:51:11;32.50;67.70
7844;DHT22;3967;48.702;9.326;2023-06-22T09:53:38;32.40;66.00
7844;DHT22;3967;48.702;9.326;2023-06-22T09:56:05;32.20;67.10
7844;DHT22;3967;48.702;9.326;2023-06-22T09:58:32;32.20;67.50
7844;DHT22;3967;48.702;9.326;2023-06-22T10:00:59;32.00;66.90
7844;DHT22;3967;48.702;9.326;2023-06-22T10:03:26;32.10;67.70
7844;DHT22;3967;48.702;9.326;2023-06-22T10:05:53;32.50;66.90
7844;DHT22;3967;48.702;9.326;2023-06-22T10:08:20;33.10;66.40
7844;DHT22;3967;48.702;9.326;2023-06-22T10:10:47;33.10;65.60
7844;DHT22;3967;48.702;9.326;2023-06-22T10:13:13;32.70;65.50
7844;DHT22;3967;48.702;9.326;2023-06-22T10:15:41;32.50;66.20
7844;DHT22;3967;48.702;9.326;2023-06-22T10:18:09;32.50;66.20
7844;DHT22;3967;48.702;9.326;2023-06-22T10:20:36;32.30;66.50
7844;DHT22;3967;48.702;9.326;2023-06-22T10:23:02;32.40;66.80
7844;DHT22;3967;48.702;9.326;2023-06-22T10:25:29;32.40;67.40
7844;DHT22;3967;48.702;9.326;2023-06-22T10:27:56;32.50;66.60
7844;DHT22;3967;48.702;9.326;2023-06-22T10:30:24;32.40;66.00
7844;DHT22;3967;48.702;9.326;2023-06-22T10:32:50;32.70;66.40
7844;DHT22;3967;48.702;9.326;2023-06-22T10:35:17;32.80;65.60
7844;DHT22;3967;48.702;9.326;2023-06-22T10:37:45;32.90;65.60
7844;DHT22;3967;48.702;9.326;2023-06-22T10:40:16;32.90;66.00
7844;DHT22;3967;48.702;9.326;2023-06-22T10:42:43;32.90;65.60
7844;DHT22;3967;48.702;9.326;2023-06-22T10:45:10;32.60;65.40
7844;DHT22;3967;48.702;9.326;2023-06-22T10:47:37;32.40;66.00
7844;DHT22;3967;48.702;9.326;2023-06-22T10:50:05;32.70;66.70
7844;DHT22;3967;48.702;9.326;2023-06-22T10:52:32;32.40;65.60
7844;DHT22;3967;48.702;9.326;2023-06-22T10:54:59;32.60;65.20
7844;DHT22;3967;48.702;9.326;2023-06-22T10:57:26;32.40;66.60
7844;DHT22;3967;48.702;9.326;2023-06-22T10:59:53;32.30;66.50
7844;DHT22;3967;48.702;9.326;2023-06-22T11:02:19;32.60;66.10
7844;DHT22;3967;48.702;9.326;2023-06-22T11:04:46;32.70;65.10
7844;DHT22;3967;48.702;9.326;2023-06-22T11:07:15;32.80;65.30
7844;DHT22;3967;48.702;9.326;2023-06-22T11:09:45;32.70;64.30
7844;DHT22;3967;48.702;9.326;2023-06-22T11:12:12;32.80;64.10
7844;DHT22;3967;48.702;9.326;2023-06-22T11:14:39;33.10;64.00
7844;DHT22;3967;48.702;9.326;2023-06-22T11:17:06;32.90;62.80
7844;DHT22;3967;48.702;9.326;2023-06-22T11:19:32;32.70;63.80
7844;DHT22;3967;48.702;9.326;2023-06-22T11:21:59;32.90;63.70
7844;DHT22;3967;48.702;9.326;2023-06-22T11:24:26;33.00;62.50
7844;DHT22;3967;48.702;9.326;2023-06-22T11:26:53;32.90;63.40
7844;DHT22;3967;48.702;9.326;2023-06-22T11:29:20;33.10;62.50
7844;DHT22;3967;48.702;9.326;2023-06-22T11:32:03;33.10;62.30
7844;DHT22;3967;48.702;9.326;2023-06-22T11:34:30;33.10;61.60
7844;DHT22;3967;48.702;9.326;2023-06-22T11:36:57;33.30;63.00
7844;DHT22;3967;48.702;9.326;2023-06-22T11:39:23;33.40;61.70
7844;DHT22;3967;48.702;9.326;2023-06-22T11:42:09;33.50;62.20
7844;DHT22;3967;48.702;9.326;2023-06-22T11:44:35;33.00;61.60
7844;DHT22;3967;48.702;9.326;2023-06-22T11:47:03;33.30;61.40
7844;DHT22;3967;48.702;9.326;2023-06-22T11:49:31;33.30;60.60
7844;DHT22;3967;48.702;9.326;2023-06-22T11:51:58;33.10;61.10
7844;DHT22;3967;48.702;9.326;2023-06-22T11:54:24;33.30;60.50
7844;DHT22;3967;48.702;9.326;2023-06-22T11:56:51;33.30;60.50
7844;DHT22;3967;48.702;9.326;2023-06-22T11:59:18;33.20;60.40
7844;DHT22;3967;48.702;9.326;2023-06-22T12:01:46;33.60;60.20
7844;DHT22;3967;48.702;9.326;2023-06-22T12:04:12;33.70;60.50
7844;DHT22;3967;48.702;9.326;2023-06-22T12:06:39;33.70;59.70
7844;DHT22;3967;48.702;9.326;2023-06-22T12:09:09;33.70;59.80
7844;DHT22;3967;48.702;9.326;2023-06-22T12:11:36;33.80;59.10
7844;DHT22;3967;48.702;9.326;2023-06-22T12:14:04;33.50;59.50
7844;DHT22;3967;48.702;9.326;2023-06-22T12:16:31;33.50;58.90
7844;DHT22;3967;48.702;9.326;2023-06-22T12:18:57;33.50;59.30
7844;DHT22;3967;48.702;9.326;2023-06-22T12:21:24;33.70;60.50
7844;DHT22;3967;48.702;9.326;2023-06-22T12:23:51;34.00;59.20
7844;DHT22;3967;48.702;9.326;2023-06-22T12:26:18;34.10;58.50
7844;DHT22;3967;48.702;9.326;2023-06-22T12:28:44;34.30;58.80
7844;DHT22;3967;48.702;9.326;2023-06-22T12:31:11;34.50;57.40
7844;DHT22;3967;48.702;9.326;2023-06-22T12:33:38;34.60;57.20
7844;DHT22;3967;48.702;9.326;2023-06-22T12:36:05;34.40;57.30
7844;DHT22;3967;48.702;9.326;2023-06-22T12:38:31;34.40;57.80
7844;DHT22;3967;48.702;9.326;2023-06-22T12:40:58;34.20;57.90
7844;DHT22;3967;48.702;9.326;2023-06-22T12:43:25;34.00;58.00
7844;DHT22;3967;48.702;9.326;2023-06-22T12:45:52;33.90;57.60
7844;DHT22;3967;48.702;9.326;2023-06-22T12:48:21;34.20;58.80
7844;DHT22;3967;48.702;9.326;2023-06-22T12:50:48;34.30;58.70
7844;DHT22;3967;48.702;9.326;2023-06-22T12:53:14;34.20;59.00
7844;DHT22;3967;48.702;9.326;2023-06-22T12:55:41;34.10;59.10
7844;DHT22;3967;48.702;9.326;2023-06-22T12:58:08;34.00;59.50
7844;DHT22;3967;48.702;9.326;2023-06-22T13:00:35;34.20;59.10
7844;DHT22;3967;48.702;9.326;2023-06-22T13:03:01;34.00;59.00
7844;DHT22;3967;48.702;9.326;2023-06-22T13:07:54;34.20;59.60
7844;DHT22;3967;48.702;9.326;2023-06-22T13:10:21;33.90;60.80
7844;DHT22;3967;48.702;9.326;2023-06-22T13:12:48;34.00;60.60
7844;DHT22;3967;48.702;9.326;2023-06-22T13:15:15;33.80;60.60
7844;DHT22;3967;48.702;9.326;2023-06-22T13:17:42;33.80;60.40
7844;DHT22;3967;48.702;9.326;2023-06-22T13:20:09;33.70;60.00
7844;DHT22;3967;48.702;9.326;2023-06-22T13:22:36;33.90;59.90
7844;DHT22;3967;48.702;9.326;2023-06-22T13:25:10;33.80;59.20
7844;DHT22;3967;48.702;9.326;2023-06-22T13:27:41;33.80;59.70
7844;DHT22;3967;48.702;9.326;2023-06-22T13:30:11;33.80;58.30
7844;DHT22;3967;48.702;9.326;2023-06-22T13:32:41;34.00;57.20
7844;DHT22;3967;48.702;9.326;2023-06-22T13:35:09;34.30;57.40
7844;DHT22;3967;48.702;9.326;2023-06-22T13:37:36;34.00;57.80
7844;DHT22;3967;48.702;9.326;2023-06-22T13:40:07;34.10;58.90
7844;DHT22;3967;48.702;9.326;2023-06-22T13:42:34;34.10;57.00
7844;DHT22;3967;48.702;9.326;2023-06-22T13:45:02;34.30;56.30
7844;DHT22;3967;48.702;9.326;2023-06-22T13:47:29;34.30;56.30
7844;DHT22;3967;48.702;9.326;2023-06-22T13:49:58;34.30;56.10
7844;DHT22;3967;48.702;9.326;2023-06-22T13:52:24;34.50;56.70
7844;DHT22;3967;48.702;9.326;2023-06-22T13:54:51;34.40;56.40
7844;DHT22;3967;48.702;9.326;2023-06-22T13:57:18;34.30;56.40
7844;DHT22;3967;48.702;9.326;2023-06-22T13:59:45;34.30;55.50
7844;DHT22;3967;48.702;9.326;2023-06-22T14:02:12;34.40;55.60
7844;DHT22;3967;48.702;9.326;2023-06-22T14:04:39;34.60;56.10
7844;DHT22;3967;48.702;9.326;2023-06-22T14:07:05;34.60;55.70
7844;DHT22;3967;48.702;9.326;2023-06-22T14:09:32;34.60;54.70
7844;DHT22;3967;48.702;9.326;2023-06-22T14:12:03;34.70;54.80
7844;DHT22;3967;48.702;9.326;2023-06-22T14:14:32;34.70;54.80
7844;DHT22;3967;48.702;9.326;2023-06-22T14:17:00;34.60;54.50
7844;DHT22;3967;48.702;9.326;2023-06-22T14:19:26;34.80;55.30
7844;DHT22;3967;48.702;9.326;2023-06-22T14:21:53;34.70;55.10
7844;DHT22;3967;48.702;9.326;2023-06-22T14:24:20;34.80;55.80
7844;DHT22;3967;48.702;9.326;2023-06-22T14:26:50;34.80;54.90
7844;DHT22;3967;48.702;9.326;2023-06-22T14:29:17;34.80;54.40
7844;DHT22;3967;48.702;9.326;2023-06-22T14:31:45;34.80;55.10
7844;DHT22;3967;48.702;9.326;2023-06-22T14:34:13;34.80;55.90
7844;DHT22;3967;48.702;9.326;2023-06-22T14:36:40;34.90;55.30
7844;DHT22;3967;48.702;9.326;2023-06-22T14:39:08;34.90;55.70
7844;DHT22;3967;48.702;9.326;2023-06-22T14:41:34;34.90;55.40
7844;DHT22;3967;48.702;9.326;2023-06-22T14:44:01;34.90;55.30
7844;DHT22;3967;48.702;9.326;2023-06-22T14:46:28;35.10;55.00
7844;DHT22;3967;48.702;9.326;2023-06-22T14:48:55;35.10;55.00
7844;DHT22;3967;48.702;9.326;2023-06-22T14:51:22;35.10;54.60
7844;DHT22;3967;48.702;9.326;2023-06-22T14:53:48;35.20;55.40
7844;DHT22;3967;48.702;9.326;2023-06-22T14:56:15;35.00;55.60
7844;DHT22;3967;48.702;9.326;2023-06-22T14:58:43;34.60;54.80
7844;DHT22;3967;48.702;9.326;2023-06-22T15:01:14;34.60;54.40
7844;DHT22;3967;48.702;9.326;2023-06-22T15:03:41;34.70;54.20
7844;DHT22;3967;48.702;9.326;2023-06-22T15:06:08;34.80;52.20
7844;DHT22;3967;48.702;9.326;2023-06-22T15:08:39;34.60;50.80
7844;DHT22;3967;48.702;9.326;2023-06-22T15:11:07;34.60;50.80
7844;DHT22;3967;48.702;9.326;2023-06-22T15:13:34;34.50;51.20
7844;DHT22;3967;48.702;9.326;2023-06-22T15:16:02;34.50;51.90
7844;DHT22;3967;48.702;9.326;2023-06-22T15:18:30;34.40;50.00
7844;DHT22;3967;48.702;9.326;2023-06-22T15:20:57;34.60;49.60
7844;DHT22;3967;48.702;9.326;2023-06-22T15:23:26;34.70;48.30
7844;DHT22;3967;48.702;9.326;2023-06-22T15:25:52;34.40;47.00
7844;DHT22;3967;48.702;9.326;2023-06-22T15:28:19;34.40;47.10
7844;DHT22;3967;48.702;9.326;2023-06-22T15:30:48;34.60;47.10
7844;DHT22;3967;48.702;9.326;2023-06-22T15:33:16;34.50;46.30
7844;DHT22;3967;48.702;9.326;2023-06-22T15:35:43;34.40;46.10
7844;DHT22;3967;48.702;9.326;2023-06-22T15:38:10;34.30;45.50
7844;DHT22;3967;48.702;9.326;2023-06-22T15:40:37;34.10;45.80
7844;DHT22;3967;48.702;9.326;2023-06-22T15:43:03;33.90;45.40
7844;DHT22;3967;48.702;9.326;2023-06-22T15:45:31;33.70;45.30
7844;DHT22;3967;48.702;9.326;2023-06-22T15:47:57;33.70;45.10
7844;DHT22;3967;48.702;9.326;2023-06-22T15:50:24;33.90;45.20
7844;DHT22;3967;48.702;9.326;2023-06-22T15:52:51;34.00;44.90
7844;DHT22;3967;48.702;9.326;2023-06-22T15:55:18;34.00;45.50
7844;DHT22;3967;48.702;9.326;2023-06-22T15:57:46;33.70;45.30
7844;DHT22;3967;48.702;9.326;2023-06-22T16:00:15;33.70;45.50
7844;DHT22;3967;48.702;9.326;2023-06-22T16:02:44;33.60;45.60
7844;DHT22;3967;48.702;9.326;2023-06-22T16:05:11;33.70;45.50
7844;DHT22;3967;48.702;9.326;2023-06-22T16:07:39;33.50;45.30
7844;DHT22;3967;48.702;9.326;2023-06-22T16:10:07;33.40;45.60
7844;DHT22;3967;48.702;9.326;2023-06-22T16:12:34;33.30;46.10
7844;DHT22;3967;48.702;9.326;2023-06-22T16:15:03;33.40;46.60
7844;DHT22;3967;48.702;9.326;2023-06-22T16:17:30;33.30;46.20